PRIVATE WETTERSTATION BILLIGHEIM-ALLFELD                       ZURCK
Wetterdaten: Donnerstag, 31.07.2014
Datum Zeit Temp. A. Temp. A. min Temp. A. max Feuchte A. Luftdruck Regen Wind Richtung Richtung Sonnenschein ET Solar Taupunkt Windchill Windben Empfang
31.07.2014 00:00 18,1 C 18,1 C 18,1 C 86 % 1012,6 hPa 0,0 l/m 0,0 km/h (0 Bft) N 0 0 min 0,025 mm 0 W/m 15,7 C 18,1 C 0,0 km/h (0 Bft) 97 %
31.07.2014 00:10 17,9 C 17,9 C 18,1 C 86 % 1012,6 hPa 0,0 l/m 0,0 km/h (0 Bft) N 0 0 min 0,000 mm 0 W/m 15,5 C 17,9 C 0,0 km/h (0 Bft) 98 %
31.07.2014 00:20 17,8 C 17,8 C 17,9 C 87 % 1012,6 hPa 0,0 l/m 0,0 km/h (0 Bft) N 0 0 min 0,000 mm 0 W/m 15,6 C 17,8 C 0,0 km/h (0 Bft) 97 %
31.07.2014 00:30 17,7 C 17,7 C 17,8 C 87 % 1012,7 hPa 0,0 l/m 0,0 km/h (0 Bft) N 0 0 min 0,000 mm 0 W/m 15,5 C 17,7 C 0,0 km/h (0 Bft) 98 %
31.07.2014 00:40 17,7 C 17,7 C 17,7 C 87 % 1012,6 hPa 0,0 l/m 0,0 km/h (0 Bft) N 0 0 min 0,000 mm 0 W/m 15,5 C 17,7 C 0,0 km/h (0 Bft) 98 %
31.07.2014 00:50 17,7 C 17,6 C 17,7 C 87 % 1012,7 hPa 0,0 l/m 0,0 km/h (0 Bft) N-NW 337 0 min 0,000 mm 0 W/m 15,5 C 17,7 C 1,6 km/h (1 Bft) 97 %
31.07.2014 01:00 17,6 C 17,6 C 17,6 C 87 % 1012,9 hPa 0,0 l/m 0,0 km/h (0 Bft) N 0 0 min 0,000 mm 0 W/m 15,4 C 17,6 C 0,0 km/h (0 Bft) 98 %
31.07.2014 01:10 17,4 C 17,4 C 17,6 C 87 % 1012,8 hPa 0,0 l/m 0,0 km/h (0 Bft) N-NW 337 0 min 0,000 mm 0 W/m 15,2 C 17,4 C 1,6 km/h (1 Bft) 96 %
31.07.2014 01:20 17,4 C 17,4 C 17,4 C 87 % 1012,9 hPa 0,0 l/m 0,0 km/h (0 Bft) N 0 0 min 0,000 mm 0 W/m 15,2 C 17,4 C 0,0 km/h (0 Bft) 98 %
31.07.2014 01:30 17,4 C 17,3 C 17,4 C 87 % 1012,9 hPa 0,0 l/m 0,0 km/h (0 Bft) N 0 0 min 0,000 mm 0 W/m 15,2 C 17,4 C 0,0 km/h (0 Bft) 98 %
31.07.2014 01:40 17,4 C 17,4 C 17,4 C 87 % 1013,1 hPa 0,0 l/m 0,0 km/h (0 Bft) N 0 0 min 0,000 mm 0 W/m 15,2 C 17,4 C 0,0 km/h (0 Bft) 97 %
31.07.2014 01:50 17,4 C 17,4 C 17,4 C 87 % 1013,2 hPa 0,0 l/m 0,0 km/h (0 Bft) N 0 0 min 0,000 mm 0 W/m 15,2 C 17,4 C 0,0 km/h (0 Bft) 98 %
31.07.2014 02:00 17,3 C 17,3 C 17,4 C 87 % 1013,2 hPa 0,0 l/m 0,0 km/h (0 Bft) N-NW 337 0 min 0,000 mm 0 W/m 15,1 C 17,3 C 1,6 km/h (1 Bft) 97 %
31.07.2014 02:10 17,3 C 17,3 C 17,4 C 87 % 1013,2 hPa 0,0 l/m 0,0 km/h (0 Bft) N 0 0 min 0,000 mm 0 W/m 15,1 C 17,3 C 0,0 km/h (0 Bft) 97 %
31.07.2014 02:20 17,4 C 17,3 C 17,4 C 87 % 1013,2 hPa 0,0 l/m 0,0 km/h (0 Bft) N 0 0 min 0,000 mm 0 W/m 15,2 C 17,4 C 0,0 km/h (0 Bft) 97 %
31.07.2014 02:30 17,4 C 17,3 C 17,4 C 87 % 1013,2 hPa 0,0 l/m 0,0 km/h (0 Bft) N 0 0 min 0,000 mm 0 W/m 15,2 C 17,4 C 0,0 km/h (0 Bft) 98 %
31.07.2014 02:40 17,4 C 17,3 C 17,4 C 87 % 1013,1 hPa 0,0 l/m 0,0 km/h (0 Bft) N 0 0 min 0,000 mm 0 W/m 15,2 C 17,4 C 0,0 km/h (0 Bft) 98 %
31.07.2014 02:50 17,3 C 17,3 C 17,4 C 87 % 1013,2 hPa 0,0 l/m 0,0 km/h (0 Bft) N 0 0 min 0,000 mm 0 W/m 15,1 C 17,3 C 0,0 km/h (0 Bft) 98 %
31.07.2014 03:00 17,3 C 17,3 C 17,4 C 87 % 1013,2 hPa 0,0 l/m 0,0 km/h (0 Bft) N-NW 337 0 min 0,000 mm 0 W/m 15,1 C 17,3 C 1,6 km/h (1 Bft) 99 %
31.07.2014 03:10 17,3 C 17,3 C 17,4 C 87 % 1013,2 hPa 0,0 l/m 0,0 km/h (0 Bft) N-NW 337 0 min 0,000 mm 0 W/m 15,1 C 17,3 C 4,8 km/h (1 Bft) 97 %
31.07.2014 03:20 17,2 C 17,2 C 17,3 C 87 % 1013,3 hPa 0,0 l/m 0,0 km/h (0 Bft) N-NW 337 0 min 0,000 mm 0 W/m 15,0 C 17,2 C 1,6 km/h (1 Bft) 98 %
31.07.2014 03:30 17,1 C 17,1 C 17,2 C 87 % 1013,2 hPa 0,0 l/m 0,0 km/h (0 Bft) N 0 0 min 0,000 mm 0 W/m 14,9 C 17,1 C 0,0 km/h (0 Bft) 97 %
31.07.2014 03:40 17,1 C 17,1 C 17,2 C 87 % 1013,2 hPa 0,0 l/m 0,0 km/h (0 Bft) N-NW 337 0 min 0,000 mm 0 W/m 14,9 C 17,1 C 1,6 km/h (1 Bft) 98 %
31.07.2014 03:50 16,9 C 16,9 C 17,1 C 87 % 1013,1 hPa 0,0 l/m 0,0 km/h (0 Bft) N-NW 337 0 min 0,000 mm 0 W/m 14,7 C 16,9 C 1,6 km/h (1 Bft) 98 %
31.07.2014 04:00 16,8 C 16,8 C 16,9 C 87 % 1013,1 hPa 0,0 l/m 0,0 km/h (0 Bft) N-NW 337 0 min 0,000 mm 0 W/m 14,6 C 16,8 C 1,6 km/h (1 Bft) 98 %
31.07.2014 04:10 16,7 C 16,7 C 16,8 C 87 % 1013,1 hPa 0,0 l/m 0,0 km/h (0 Bft) N 0 0 min 0,000 mm 0 W/m 14,5 C 16,7 C 0,0 km/h (0 Bft) 97 %
31.07.2014 04:20 16,6 C 16,6 C 16,7 C 87 % 1013,3 hPa 0,0 l/m 0,0 km/h (0 Bft) N-NW 337 0 min 0,000 mm 0 W/m 14,4 C 16,6 C 1,6 km/h (1 Bft) 97 %
31.07.2014 04:30 16,4 C 16,4 C 16,6 C 87 % 1013,3 hPa 0,0 l/m 0,0 km/h (0 Bft) N-NW 337 0 min 0,000 mm 0 W/m 14,2 C 16,4 C 1,6 km/h (1 Bft) 97 %
31.07.2014 04:40 16,2 C 16,2 C 16,4 C 87 % 1013,3 hPa 0,0 l/m 0,0 km/h (0 Bft) N 0 0 min 0,000 mm 0 W/m 14,0 C 16,2 C 0,0 km/h (0 Bft) 98 %
31.07.2014 04:50 16,0 C 16,0 C 16,2 C 88 % 1013,4 hPa 0,0 l/m 0,0 km/h (0 Bft) N 0 0 min 0,000 mm 0 W/m 14,0 C 16,0 C 0,0 km/h (0 Bft) 98 %
31.07.2014 05:00 15,8 C 15,8 C 16,0 C 87 % 1013,3 hPa 0,0 l/m 0,0 km/h (0 Bft) N 0 0 min 0,000 mm 0 W/m 13,6 C 15,8 C 0,0 km/h (0 Bft) 97 %
31.07.2014 05:10 15,6 C 15,6 C 15,8 C 88 % 1013,4 hPa 0,0 l/m 0,0 km/h (0 Bft) N 0 0 min 0,000 mm 0 W/m 13,6 C 15,6 C 0,0 km/h (0 Bft) 98 %
31.07.2014 05:20 15,3 C 15,3 C 15,6 C 88 % 1013,4 hPa 0,0 l/m 0,0 km/h (0 Bft) N 0 0 min 0,000 mm 0 W/m 13,3 C 15,3 C 0,0 km/h (0 Bft) 98 %
31.07.2014 05:30 15,1 C 15,1 C 15,3 C 88 % 1013,4 hPa 0,0 l/m 0,0 km/h (0 Bft) N 0 0 min 0,000 mm 0 W/m 13,1 C 15,1 C 0,0 km/h (0 Bft) 98 %
31.07.2014 05:40 15,1 C 15,1 C 15,1 C 88 % 1013,5 hPa 0,0 l/m 0,0 km/h (0 Bft) N 0 0 min 0,000 mm 0 W/m 13,1 C 15,1 C 0,0 km/h (0 Bft) 98 %
31.07.2014 05:50 15,0 C 15,0 C 15,1 C 88 % 1013,6 hPa 0,0 l/m 0,0 km/h (0 Bft) N 0 0 min 0,000 mm 0 W/m 13,0 C 15,0 C 0,0 km/h (0 Bft) 98 %
31.07.2014 06:00 14,9 C 14,9 C 15,0 C 88 % 1013,7 hPa 0,0 l/m 0,0 km/h (0 Bft) N 0 0 min 0,000 mm 0 W/m 12,9 C 14,9 C 0,0 km/h (0 Bft) 97 %
31.07.2014 06:10 14,8 C 14,8 C 14,9 C 88 % 1013,8 hPa 0,0 l/m 0,0 km/h (0 Bft) N 0 0 min 0,000 mm 7 W/m 12,8 C 14,8 C 0,0 km/h (0 Bft) 98 %
31.07.2014 06:20 14,8 C 14,8 C 14,8 C 88 % 1013,9 hPa 0,0 l/m 0,0 km/h (0 Bft) N 0 0 min 0,000 mm 16 W/m 12,8 C 14,8 C 0,0 km/h (0 Bft) 98 %
31.07.2014 06:30 14,8 C 14,8 C 14,8 C 88 % 1014,1 hPa 0,0 l/m 0,0 km/h (0 Bft) N 0 0 min 0,000 mm 28 W/m 12,8 C 14,8 C 0,0 km/h (0 Bft) 98 %
31.07.2014 06:40 14,8 C 14,8 C 14,8 C 88 % 1014,1 hPa 0,0 l/m 0,0 km/h (0 Bft) N 0 0 min 0,000 mm 28 W/m 12,8 C 14,8 C 0,0 km/h (0 Bft) 97 %
31.07.2014 06:50 14,8 C 14,8 C 14,8 C 88 % 1014,1 hPa 0,0 l/m 0,0 km/h (0 Bft) N 0 0 min 0,000 mm 35 W/m 12,8 C 14,8 C 0,0 km/h (0 Bft) 98 %
31.07.2014 07:00 14,9 C 14,8 C 14,9 C 87 % 1014,1 hPa 0,0 l/m 0,0 km/h (0 Bft) N 0 0 min 0,025 mm 46 W/m 12,8 C 14,9 C 0,0 km/h (0 Bft) 97 %
31.07.2014 07:10 15,1 C 14,9 C 15,1 C 87 % 1014,2 hPa 0,0 l/m 0,0 km/h (0 Bft) N 0 0 min 0,000 mm 46 W/m 13,0 C 15,1 C 0,0 km/h (0 Bft) 97 %
31.07.2014 07:20 15,3 C 15,1 C 15,3 C 87 % 1014,3 hPa 0,0 l/m 0,0 km/h (0 Bft) N 0 0 min 0,000 mm 46 W/m 13,1 C 15,3 C 0,0 km/h (0 Bft) 98 %
31.07.2014 07:30 15,6 C 15,3 C 15,6 C 87 % 1014,3 hPa 0,0 l/m 0,0 km/h (0 Bft) N 0 0 min 0,000 mm 47 W/m 13,4 C 15,6 C 0,0 km/h (0 Bft) 98 %
31.07.2014 07:40 15,8 C 15,6 C 15,8 C 87 % 1014,4 hPa 0,0 l/m 0,0 km/h (0 Bft) N 0 0 min 0,000 mm 54 W/m 13,6 C 15,8 C 0,0 km/h (0 Bft) 97 %
31.07.2014 07:50 15,9 C 15,7 C 15,9 C 87 % 1014,3 hPa 0,0 l/m 0,0 km/h (0 Bft) N 0 0 min 0,000 mm 58 W/m 13,7 C 15,9 C 0,0 km/h (0 Bft) 98 %
31.07.2014 08:00 15,9 C 15,9 C 15,9 C 87 % 1014,4 hPa 0,0 l/m 0,0 km/h (0 Bft) N 0 0 min 0,025 mm 70 W/m 13,7 C 15,9 C 0,0 km/h (0 Bft) 96 %
31.07.2014 08:10 15,9 C 15,9 C 15,9 C 87 % 1014,4 hPa 0,0 l/m 0,0 km/h (0 Bft) N 0 0 min 0,000 mm 84 W/m 13,7 C 15,9 C 0,0 km/h (0 Bft) 98 %
31.07.2014 08:20 16,1 C 15,9 C 16,1 C 87 % 1014,5 hPa 0,0 l/m 0,0 km/h (0 Bft) N 0 0 min 0,000 mm 102 W/m 13,9 C 16,1 C 0,0 km/h (0 Bft) 97 %
31.07.2014 08:30 16,3 C 16,1 C 16,3 C 87 % 1014,5 hPa 0,0 l/m 0,0 km/h (0 Bft) N 0 0 min 0,000 mm 144 W/m 14,1 C 16,3 C 0,0 km/h (0 Bft) 98 %
31.07.2014 08:40 16,7 C 16,3 C 16,7 C 87 % 1014,6 hPa 0,0 l/m 0,0 km/h (0 Bft) N 0 0 min 0,000 mm 148 W/m 14,5 C 16,7 C 0,0 km/h (0 Bft) 98 %
31.07.2014 08:50 16,9 C 16,7 C 16,9 C 88 % 1014,6 hPa 0,0 l/m 0,0 km/h (0 Bft) N 0 0 min 0,000 mm 128 W/m 14,9 C 16,9 C 0,0 km/h (0 Bft) 97 %
31.07.2014 09:00 17,2 C 17,0 C 17,2 C 88 % 1014,7 hPa 0,0 l/m 0,0 km/h (0 Bft) N 0 0 min 0,051 mm 128 W/m 15,2 C 17,2 C 0,0 km/h (0 Bft) 97 %
31.07.2014 09:10 17,3 C 17,2 C 17,3 C 88 % 1014,8 hPa 0,0 l/m 0,0 km/h (0 Bft) N 0 0 min 0,000 mm 144 W/m 15,3 C 17,3 C 0,0 km/h (0 Bft) 98 %
31.07.2014 09:20 17,5 C 17,3 C 17,5 C 87 % 1014,8 hPa 0,0 l/m 0,0 km/h (0 Bft) N 0 10 min 0,000 mm 199 W/m 15,3 C 17,5 C 0,0 km/h (0 Bft) 98 %
31.07.2014 09:30 17,8 C 17,5 C 17,8 C 87 % 1014,8 hPa 0,0 l/m 0,0 km/h (0 Bft) N 0 10 min 0,000 mm 239 W/m 15,6 C 17,8 C 0,0 km/h (0 Bft) 98 %
31.07.2014 09:40 17,9 C 17,8 C 17,9 C 87 % 1014,8 hPa 0,0 l/m 0,0 km/h (0 Bft) N 0 10 min 0,000 mm 274 W/m 15,7 C 17,9 C 0,0 km/h (0 Bft) 98 %
31.07.2014 09:50 17,9 C 17,8 C 17,9 C 87 % 1014,8 hPa 0,0 l/m 0,0 km/h (0 Bft) N 0 10 min 0,000 mm 186 W/m 15,7 C 17,9 C 0,0 km/h (0 Bft) 96 %
31.07.2014 10:00 18,1 C 17,9 C 18,1 C 87 % 1014,9 hPa 0,0 l/m 0,0 km/h (0 Bft) N 0 10 min 0,102 mm 216 W/m 15,9 C 18,1 C 0,0 km/h (0 Bft) 97 %
31.07.2014 10:10 18,2 C 18,1 C 18,2 C 85 % 1014,9 hPa 0,0 l/m 0,0 km/h (0 Bft) N 0 10 min 0,000 mm 257 W/m 15,6 C 18,2 C 0,0 km/h (0 Bft) 97 %
31.07.2014 10:20 18,4 C 18,1 C 18,4 C 86 % 1014,8 hPa 0,0 l/m 0,0 km/h (0 Bft) N 0 10 min 0,000 mm 432 W/m 16,0 C 18,4 C 0,0 km/h (0 Bft) 98 %
31.07.2014 10:30 18,8 C 18,4 C 18,8 C 85 % 1014,9 hPa 0,0 l/m 0,0 km/h (0 Bft) N 0 10 min 0,000 mm 471 W/m 16,2 C 18,8 C 0,0 km/h (0 Bft) 98 %
31.07.2014 10:40 19,3 C 18,8 C 19,3 C 85 % 1014,9 hPa 0,0 l/m 1,6 km/h (1 Bft) S-SW 202 10 min 0,000 mm 679 W/m 16,7 C 19,3 C 6,4 km/h (2 Bft) 97 %
31.07.2014 10:50 20,1 C 19,4 C 20,1 C 80 % 1014,9 hPa 0,0 l/m 0,0 km/h (0 Bft) S-SW 202 10 min 0,000 mm 621 W/m 16,5 C 20,1 C 3,2 km/h (1 Bft) 98 %
31.07.2014 11:00 20,9 C 20,1 C 20,9 C 77 % 1014,8 hPa 0,0 l/m 0,0 km/h (0 Bft) S-SW 202 10 min 0,254 mm 724 W/m 16,7 C 20,9 C 3,2 km/h (1 Bft) 97 %
31.07.2014 11:10 21,4 C 20,9 C 21,4 C 75 % 1014,9 hPa 0,0 l/m 0,0 km/h (0 Bft) S-SW 202 10 min 0,000 mm 712 W/m 16,8 C 21,4 C 3,2 km/h (1 Bft) 97 %
31.07.2014 11:20 21,9 C 21,4 C 21,9 C 71 % 1014,8 hPa 0,0 l/m 0,0 km/h (0 Bft) S-SW 202 10 min 0,000 mm 737 W/m 16,4 C 21,9 C 3,2 km/h (1 Bft) 97 %
31.07.2014 11:30 22,4 C 21,9 C 22,4 C 69 % 1014,8 hPa 0,0 l/m 0,0 km/h (0 Bft) S-SW 202 10 min 0,000 mm 745 W/m 16,4 C 22,4 C 6,4 km/h (2 Bft) 96 %
31.07.2014 11:40 22,8 C 22,4 C 22,8 C 72 % 1014,7 hPa 0,0 l/m 1,6 km/h (1 Bft) S-SW 202 10 min 0,000 mm 821 W/m 17,5 C 22,8 C 8,0 km/h (2 Bft) 97 %
31.07.2014 11:50 23,1 C 22,8 C 23,1 C 67 % 1014,6 hPa 0,0 l/m 1,6 km/h (1 Bft) S-SW 202 10 min 0,000 mm 874 W/m 16,6 C 23,1 C 11,3 km/h (2 Bft) 97 %
31.07.2014 12:00 23,1 C 23,1 C 23,1 C 70 % 1014,4 hPa 0,0 l/m 1,6 km/h (1 Bft) SO 135 10 min 0,457 mm 905 W/m 17,3 C 23,1 C 9,7 km/h (2 Bft) 98 %
31.07.2014 12:10 23,4 C 23,1 C 23,4 C 68 % 1014,5 hPa 0,0 l/m 1,6 km/h (1 Bft) W-SW 247 10 min 0,000 mm 976 W/m 17,1 C 23,4 C 9,7 km/h (2 Bft) 97 %
31.07.2014 12:20 23,7 C 23,4 C 23,7 C 67 % 1014,5 hPa 0,0 l/m 1,6 km/h (1 Bft) S-SW 202 10 min 0,000 mm 1027 W/m 17,2 C 23,7 C 14,5 km/h (3 Bft) 97 %
31.07.2014 12:30 23,8 C 23,7 C 23,8 C 60 % 1014,5 hPa 0,0 l/m 1,6 km/h (1 Bft) SW 225 10 min 0,000 mm 1041 W/m 15,6 C 23,8 C 14,5 km/h (3 Bft) 98 %
31.07.2014 12:40 23,7 C 23,6 C 23,8 C 66 % 1014,5 hPa 0,0 l/m 1,6 km/h (1 Bft) W-NW 292 10 min 0,000 mm 353 W/m 17,0 C 23,7 C 9,7 km/h (2 Bft) 97 %
31.07.2014 12:50 23,5 C 23,4 C 23,6 C 65 % 1014,4 hPa 0,0 l/m 3,2 km/h (1 Bft) W-NW 292 10 min 0,000 mm 318 W/m 16,5 C 23,5 C 9,7 km/h (2 Bft) 97 %
31.07.2014 13:00 23,5 C 23,5 C 23,6 C 65 % 1014,4 hPa 0,0 l/m 3,2 km/h (1 Bft) NW 315 10 min 0,406 mm 911 W/m 16,5 C 23,5 C 9,7 km/h (2 Bft) 98 %
31.07.2014 13:10 23,1 C 23,1 C 23,5 C 64 % 1014,4 hPa 0,0 l/m 1,6 km/h (1 Bft) NW 315 10 min 0,000 mm 492 W/m 15,9 C 23,1 C 8,0 km/h (2 Bft) 98 %
31.07.2014 13:20 23,1 C 23,1 C 23,1 C 65 % 1014,3 hPa 0,0 l/m 0,0 km/h (0 Bft) NW 315 10 min 0,000 mm 963 W/m 16,2 C 23,1 C 1,6 km/h (1 Bft) 98 %
31.07.2014 13:30 23,2 C 23,1 C 23,2 C 69 % 1014,1 hPa 0,0 l/m 0,0 km/h (0 Bft) NW 315 10 min 0,000 mm 387 W/m 17,2 C 23,2 C 1,6 km/h (1 Bft) 91 %
31.07.2014 13:40 23,3 C 23,2 C 23,3 C 65 % 1014,0 hPa 0,0 l/m 1,6 km/h (1 Bft) N 360 10 min 0,000 mm 733 W/m 16,3 C 23,3 C 8,0 km/h (2 Bft) 97 %
31.07.2014 13:50 23,8 C 23,3 C 23,8 C 68 % 1014,0 hPa 0,0 l/m 3,2 km/h (1 Bft) NW 315 10 min 0,000 mm 1060 W/m 17,5 C 23,8 C 12,9 km/h (3 Bft) 93 %
31.07.2014 14:00 24,4 C 23,8 C 24,4 C 65 % 1014,0 hPa 0,0 l/m 6,4 km/h (2 Bft) W-NW 292 10 min 0,381 mm 939 W/m 17,4 C 24,4 C 16,1 km/h (3 Bft) 100 %
31.07.2014 14:10 24,8 C 24,4 C 24,8 C 63 % 1013,9 hPa 0,0 l/m 4,8 km/h (1 Bft) NW 315 10 min 0,000 mm 889 W/m 17,3 C 24,8 C 16,1 km/h (3 Bft) 99 %
31.07.2014 14:20 24,8 C 24,8 C 24,8 C 58 % 1013,9 hPa 0,0 l/m 3,2 km/h (1 Bft) NW 315 10 min 0,000 mm 853 W/m 16,0 C 24,8 C 16,1 km/h (3 Bft) 100 %
31.07.2014 14:30 25,0 C 24,8 C 25,0 C 60 % 1013,8 hPa 0,0 l/m 6,4 km/h (2 Bft) NW 315 10 min 0,000 mm 886 W/m 16,7 C 25,0 C 20,9 km/h (4 Bft) 100 %
31.07.2014 14:40 25,1 C 25,1 C 25,1 C 58 % 1013,8 hPa 0,0 l/m 3,2 km/h (1 Bft) NW 315 10 min 0,000 mm 879 W/m 16,2 C 25,1 C 11,3 km/h (2 Bft) 100 %
31.07.2014 14:50 25,4 C 25,2 C 25,4 C 55 % 1013,7 hPa 0,0 l/m 4,8 km/h (1 Bft) W-NW 292 10 min 0,000 mm 821 W/m 15,7 C 25,4 C 17,7 km/h (3 Bft) 100 %
31.07.2014 15:00 25,3 C 25,2 C 25,4 C 58 % 1013,7 hPa 0,0 l/m 3,2 km/h (1 Bft) NW 315 10 min 0,533 mm 824 W/m 16,4 C 25,3 C 14,5 km/h (3 Bft) 100 %
31.07.2014 15:10 25,4 C 25,3 C 25,4 C 50 % 1013,6 hPa 0,0 l/m 1,6 km/h (1 Bft) W-NW 292 10 min 0,000 mm 789 W/m 14,2 C 25,4 C 8,0 km/h (2 Bft) 100 %
31.07.2014 15:20 25,7 C 25,4 C 25,7 C 53 % 1013,4 hPa 0,0 l/m 4,8 km/h (1 Bft) W-NW 292 10 min 0,000 mm 773 W/m 15,4 C 25,7 C 11,3 km/h (2 Bft) 100 %
31.07.2014 15:30 25,8 C 25,7 C 25,9 C 46 % 1013,5 hPa 0,0 l/m 3,2 km/h (1 Bft) W-NW 292 10 min 0,000 mm 758 W/m 13,3 C 25,8 C 11,3 km/h (2 Bft) 100 %
31.07.2014 15:40 25,8 C 25,7 C 25,8 C 48 % 1013,5 hPa 0,0 l/m 1,6 km/h (1 Bft) W-SW 247 10 min 0,000 mm 740 W/m 13,9 C 25,8 C 9,7 km/h (2 Bft) 100 %
31.07.2014 15:50 25,4 C 25,4 C 25,9 C 49 % 1013,3 hPa 0,0 l/m 0,0 km/h (0 Bft) S 180 10 min 0,000 mm 722 W/m 13,9 C 25,4 C 8,0 km/h (2 Bft) 100 %
31.07.2014 16:00 24,9 C 24,9 C 25,3 C 49 % 1013,3 hPa 0,0 l/m 0,0 km/h (0 Bft) O-SO 112 10 min 0,483 mm 721 W/m 13,4 C 24,9 C 6,4 km/h (2 Bft) 100 %
31.07.2014 16:10 25,2 C 24,9 C 25,2 C 54 % 1013,3 hPa 0,0 l/m 1,6 km/h (1 Bft) N-NW 337 10 min 0,000 mm 501 W/m 15,2 C 25,2 C 8,0 km/h (2 Bft) 100 %
31.07.2014 16:20 25,2 C 25,2 C 25,2 C 54 % 1013,4 hPa 0,0 l/m 1,6 km/h (1 Bft) NW 315 10 min 0,000 mm 659 W/m 15,2 C 25,2 C 6,4 km/h (2 Bft) 100 %
31.07.2014 16:30 24,8 C 24,8 C 25,2 C 56 % 1013,3 hPa 0,0 l/m 1,6 km/h (1 Bft) O-SO 112 10 min 0,000 mm 652 W/m 15,4 C 24,8 C 9,7 km/h (2 Bft) 100 %
31.07.2014 16:40 24,2 C 24,2 C 24,8 C 56 % 1013,3 hPa 0,0 l/m 0,0 km/h (0 Bft) O-NO 67 0 min 0,000 mm 111 W/m 14,9 C 24,2 C 1,6 km/h (1 Bft) 100 %
31.07.2014 16:50 23,6 C 23,6 C 24,8 C 58 % 1013,1 hPa 0,0 l/m 0,0 km/h (0 Bft) O-NO 69 0 min 0,000 mm 91 W/m 14,8 C 23,6 C 1,6 km/h (1 Bft) 100 %
31.07.2014 17:00 23,4 C 23,4 C 23,6 C 57 % 1013,0 hPa 0,0 l/m 0,0 km/h (0 Bft) O-NO 70 10 min 0,154 mm 158 W/m 14,4 C 23,4 C 1,6 km/h (1 Bft) 100 %
31.07.2014 17:10 23,8 C 23,4 C 23,8 C 53 % 1013,0 hPa 0,0 l/m 1,1 km/h (1 Bft) O-SO 117 0 min 0,000 mm 109 W/m 13,6 C 23,8 C 8,0 km/h (2 Bft) 100 %
31.07.2014 17:20 24,1 C 23,8 C 24,1 C 53 % 1013,0 hPa 0,0 l/m 0,1 km/h (0 Bft) O-SO 121 0 min 0,000 mm 90 W/m 13,9 C 24,1 C 3,2 km/h (1 Bft) 100 %
31.07.2014 17:30 24,5 C 24,1 C 24,5 C 55 % 1013,0 hPa 0,0 l/m 0,5 km/h (0 Bft) W-NW 295 0 min 0,000 mm 90 W/m 14,9 C 24,5 C 6,4 km/h (2 Bft) 100 %
31.07.2014 17:40 24,8 C 24,5 C 24,8 C 55 % 1012,9 hPa 0,0 l/m 0,0 km/h (0 Bft) W-NW 295 0 min 0,000 mm 93 W/m 15,1 C 24,8 C 1,6 km/h (1 Bft) 100 %
31.07.2014 17:50 24,9 C 24,8 C 24,9 C 54 % 1012,9 hPa 0,0 l/m 0,1 km/h (0 Bft) W-NW 298 0 min 0,000 mm 88 W/m 14,9 C 24,9 C 3,2 km/h (1 Bft) 100 %
31.07.2014 18:00 24,8 C 24,8 C 24,9 C 54 % 1012,8 hPa 0,0 l/m 0,0 km/h (0 Bft) W-NW 298 0 min 0,076 mm 90 W/m 14,8 C 24,8 C 1,6 km/h (1 Bft) 100 %
31.07.2014 18:10 24,7 C 24,7 C 24,8 C 56 % 1012,6 hPa 0,0 l/m 0,0 km/h (0 Bft) W-NW 298 0 min 0,000 mm 67 W/m 15,3 C 24,7 C 1,6 km/h (1 Bft) 100 %
31.07.2014 18:20 24,6 C 24,6 C 24,7 C 58 % 1012,6 hPa 0,0 l/m 0,5 km/h (0 Bft) W-NW 302 0 min 0,000 mm 74 W/m 15,8 C 24,6 C 4,8 km/h (1 Bft) 99 %
31.07.2014 18:30 24,2 C 24,2 C 24,6 C 60 % 1012,6 hPa 0,0 l/m 0,0 km/h (0 Bft) NW 319 0 min 0,000 mm 53 W/m 15,9 C 24,2 C 1,6 km/h (1 Bft) 100 %
31.07.2014 18:40 23,2 C 23,2 C 24,2 C 61 % 1012,4 hPa 0,0 l/m 0,0 km/h (0 Bft) NW 319 0 min 0,000 mm 63 W/m 15,3 C 23,2 C 1,6 km/h (1 Bft) 100 %
31.07.2014 18:50 22,8 C 22,8 C 23,2 C 62 % 1012,4 hPa 0,0 l/m 0,0 km/h (0 Bft) NW 319 0 min 0,000 mm 47 W/m 15,1 C 22,8 C 1,6 km/h (1 Bft) 100 %
31.07.2014 19:00 22,6 C 22,6 C 22,8 C 60 % 1012,4 hPa 0,0 l/m 0,0 km/h (0 Bft) NW 319 0 min 0,051 mm 46 W/m 14,4 C 22,6 C 1,6 km/h (1 Bft) 100 %
31.07.2014 19:10 22,4 C 22,4 C 22,6 C 61 % 1012,4 hPa 0,0 l/m 0,0 km/h (0 Bft) NW 319 10 min 0,000 mm 162 W/m 14,5 C 22,4 C 0,0 km/h (0 Bft) 100 %
31.07.2014 19:20 22,4 C 22,4 C 22,4 C 61 % 1012,4 hPa 0,0 l/m 0,0 km/h (0 Bft) NW 319 0 min 0,000 mm 98 W/m 14,5 C 22,4 C 0,0 km/h (0 Bft) 100 %
31.07.2014 19:30 22,5 C 22,4 C 22,5 C 61 % 1012,4 hPa 0,0 l/m 0,0 km/h (0 Bft) NW 319 0 min 0,000 mm 44 W/m 14,6 C 22,5 C 1,6 km/h (1 Bft) 100 %
31.07.2014 19:40 22,4 C 22,4 C 22,5 C 63 % 1012,3 hPa 0,0 l/m 0,0 km/h (0 Bft) NW 319 0 min 0,000 mm 40 W/m 15,0 C 22,4 C 0,0 km/h (0 Bft) 100 %
31.07.2014 19:50 22,4 C 22,3 C 22,4 C 65 % 1012,3 hPa 0,0 l/m 0,0 km/h (0 Bft) NW 319 0 min 0,000 mm 37 W/m 15,5 C 22,4 C 0,0 km/h (0 Bft) 100 %
31.07.2014 20:00 22,2 C 22,2 C 22,4 C 66 % 1012,3 hPa 0,0 l/m 0,0 km/h (0 Bft) NW 319 0 min 0,050 mm 33 W/m 15,5 C 22,2 C 0,0 km/h (0 Bft) 100 %
31.07.2014 20:10 22,0 C 22,0 C 22,2 C 67 % 1012,2 hPa 0,0 l/m 0,0 km/h (0 Bft) NW 319 0 min 0,000 mm 28 W/m 15,6 C 22,0 C 0,0 km/h (0 Bft) 100 %
31.07.2014 20:20 21,8 C 21,8 C 22,0 C 66 % 1012,2 hPa 0,0 l/m 0,0 km/h (0 Bft) NW 319 0 min 0,000 mm 25 W/m 15,2 C 21,8 C 1,6 km/h (1 Bft) 100 %
31.07.2014 20:30 21,6 C 21,6 C 21,8 C 68 % 1012,2 hPa 0,0 l/m 0,0 km/h (0 Bft) NW 319 0 min 0,000 mm 18 W/m 15,4 C 21,6 C 0,0 km/h (0 Bft) 100 %
31.07.2014 20:40 21,3 C 21,3 C 21,6 C 69 % 1012,2 hPa 0,0 l/m 0,0 km/h (0 Bft) NW 319 0 min 0,000 mm 12 W/m 15,4 C 21,3 C 0,0 km/h (0 Bft) 100 %
31.07.2014 20:50 20,9 C 20,9 C 21,3 C 72 % 1012,3 hPa 0,0 l/m 0,0 km/h (0 Bft) NW 319 0 min 0,000 mm 5 W/m 15,7 C 20,9 C 0,0 km/h (0 Bft) 100 %
31.07.2014 21:00 20,6 C 20,6 C 20,9 C 71 % 1012,2 hPa 0,0 l/m 0,0 km/h (0 Bft) NW 319 0 min 0,026 mm 0 W/m 15,2 C 20,6 C 0,0 km/h (0 Bft) 100 %
31.07.2014 21:10 20,2 C 20,2 C 20,6 C 72 % 1012,4 hPa 0,0 l/m 0,0 km/h (0 Bft) N 0 0 min 0,000 mm 0 W/m 15,0 C 20,2 C 0,0 km/h (0 Bft) 100 %
31.07.2014 21:20 19,8 C 19,8 C 20,2 C 71 % 1012,4 hPa 0,0 l/m 0,0 km/h (0 Bft) N 0 0 min 0,000 mm 0 W/m 14,4 C 19,8 C 0,0 km/h (0 Bft) 100 %
31.07.2014 21:30 19,6 C 19,6 C 19,8 C 71 % 1012,5 hPa 0,0 l/m 0,0 km/h (0 Bft) NW 315 0 min 0,000 mm 0 W/m 14,2 C 19,6 C 1,6 km/h (1 Bft) 100 %
31.07.2014 21:40 19,3 C 19,3 C 19,6 C 74 % 1012,6 hPa 0,0 l/m 0,0 km/h (0 Bft) NW 315 0 min 0,000 mm 0 W/m 14,5 C 19,3 C 3,2 km/h (1 Bft) 100 %
31.07.2014 21:50 18,9 C 18,9 C 19,3 C 74 % 1012,6 hPa 0,0 l/m 0,0 km/h (0 Bft) NW 315 0 min 0,000 mm 0 W/m 14,2 C 18,9 C 1,6 km/h (1 Bft) 100 %
31.07.2014 22:00 18,7 C 18,7 C 18,9 C 74 % 1012,6 hPa 0,0 l/m 0,0 km/h (0 Bft) N 0 0 min 0,000 mm 0 W/m 14,0 C 18,7 C 0,0 km/h (0 Bft) 100 %
31.07.2014 22:10 18,5 C 18,5 C 18,7 C 78 % 1012,7 hPa 0,0 l/m 0,0 km/h (0 Bft) NW 315 0 min 0,000 mm 0 W/m 14,6 C 18,5 C 1,6 km/h (1 Bft) 100 %
31.07.2014 22:20 18,2 C 18,2 C 18,4 C 79 % 1012,6 hPa 0,0 l/m 0,0 km/h (0 Bft) NW 315 0 min 0,000 mm 0 W/m 14,5 C 18,2 C 1,6 km/h (1 Bft) 100 %
31.07.2014 22:30 17,9 C 17,9 C 18,2 C 81 % 1012,7 hPa 0,0 l/m 1,6 km/h (1 Bft) NW 315 0 min 0,000 mm 0 W/m 14,6 C 17,9 C 3,2 km/h (1 Bft) 100 %
31.07.2014 22:40 17,6 C 17,6 C 17,9 C 81 % 1012,8 hPa 0,0 l/m 0,0 km/h (0 Bft) NW 315 0 min 0,000 mm 0 W/m 14,3 C 17,6 C 1,6 km/h (1 Bft) 100 %
31.07.2014 22:50 17,3 C 17,3 C 17,6 C 81 % 1012,8 hPa 0,0 l/m 0,0 km/h (0 Bft) NW 315 0 min 0,000 mm 0 W/m 14,0 C 17,3 C 1,6 km/h (1 Bft) 100 %
31.07.2014 23:00 17,1 C 17,1 C 17,3 C 83 % 1012,7 hPa 0,0 l/m 0,0 km/h (0 Bft) NW 315 0 min 0,025 mm 0 W/m 14,2 C 17,1 C 1,6 km/h (1 Bft) 100 %
31.07.2014 23:10 16,9 C 16,9 C 17,1 C 84 % 1012,8 hPa 0,0 l/m 0,0 km/h (0 Bft) NW 315 0 min 0,000 mm 0 W/m 14,2 C 16,9 C 1,6 km/h (1 Bft) 98 %
31.07.2014 23:20 16,7 C 16,7 C 16,9 C 84 % 1012,7 hPa 0,0 l/m 0,0 km/h (0 Bft) N 0 0 min 0,000 mm 0 W/m 14,0 C 16,7 C 0,0 km/h (0 Bft) 100 %
31.07.2014 23:30 16,5 C 16,5 C 16,7 C 85 % 1012,8 hPa 0,0 l/m 0,0 km/h (0 Bft) NW 315 0 min 0,000 mm 0 W/m 14,0 C 16,5 C 3,2 km/h (1 Bft) 100 %
31.07.2014 23:40 16,3 C 16,3 C 16,5 C 85 % 1012,7 hPa 0,0 l/m 0,0 km/h (0 Bft) N 0 0 min 0,000 mm 0 W/m 13,8 C 16,3 C 0,0 km/h (0 Bft) 100 %
31.07.2014 23:50 16,2 C 16,2 C 16,3 C 86 % 1012,8 hPa 0,0 l/m 0,0 km/h (0 Bft) N 0 0 min 0,000 mm 0 W/m 13,9 C 16,2 C 0,0 km/h (0 Bft) 100 %
_ Min-Zeit 06:10 06:10 06:20 15:30 20:10 - 00:00 - - - - - 07:00 06:10 00:00 13:30
Minimum _ 14,8 C 14,8 C 14,8 C 46 % 1012,2 hPa - 0,0 km/h (0 Bft) - - - - - 12,8 C 14,8 C 0,0 km/h (0 Bft) 91 %
_ Max-Zeit 15:30 15:30 15:30 04:50 10:00 00:00 14:00 - - 09:20 15:00 13:50 13:50 15:30 14:30 14:30
Maximum _ 25,9 C 25,7 C 25,9 C 88 % 1014,9 hPa 0,0 l/m 6,4 km/h
W-NW (2 Bft)
- - 10 min 0,533 mm 1060 W/m 17,5 C 25,8 C 20,9 km/h
NW (4 Bft)
100 %
Durchschnitt _ 19,8 C 19,7 C 19,9 C 75 % 1013,5 hPa #0,0 l/m 0,5 km/h (0 Bft) NW - #7:40 h #3,124 mm 370 W/m 15,0 C 19,8 C 3,0 km/h (1 Bft) 98 %
PRIVATE WETTERSTATION BILLIGHEIM-ALLFELD - www.neckar-odenwald-wetter.de - Holger Sonntag